Time;durP1;ratioP1;P1;durP2;ratioP2;P2;SDS_P1;SDS_P2;PMS_P1;PMS_P2;Temp;Humidity;BMP_temperature;BMP_pressure;BME280_temperature;BME280_humidity;BME280_pressure;Samples;Min_cycle;Max_cycle;Signal;HPM_P1;HPM_P2
2021/05/09 00:00:08;;;;;;;9.45;6.40;;;10.70;99.90;;;;;;4982254;28;20117;-87
2021/05/09 00:02:37;;;;;;;8.75;5.75;;;10.70;99.90;;;;;;5014105;28;20046;-87
2021/05/09 00:05:07;;;;;;;9.32;6.03;;;10.60;99.90;;;;;;4997859;28;20073;-87
2021/05/09 00:07:37;;;;;;;7.38;5.45;;;10.60;99.90;;;;;;4998332;28;20078;-87
2021/05/09 00:10:07;;;;;;;10.90;6.40;;;10.50;99.90;;;;;;4997645;28;20092;-87
2021/05/09 00:12:34;;;;;;;8.05;5.20;;;10.50;99.90;;;;;;5012803;28;20050;-86
2021/05/09 00:15:02;;;;;;;8.38;5.10;;;10.40;99.90;;;;;;5013534;28;20046;-86
2021/05/09 00:17:29;;;;;;;10.23;5.53;;;10.30;99.90;;;;;;5013510;28;20050;-86
2021/05/09 00:19:57;;;;;;;9.60;5.95;;;10.30;99.90;;;;;;5031242;28;20049;-87
2021/05/09 00:22:24;;;;;;;8.52;5.28;;;10.20;99.90;;;;;;4997587;28;20042;-87
2021/05/09 00:24:53;;;;;;;10.10;6.10;;;10.10;99.90;;;;;;5014415;28;20053;-87
2021/05/09 00:27:41;;;;;;;8.32;6.05;;;10.10;99.90;;;;;;4973539;28;20510;-87
2021/05/09 00:30:10;;;;;;;8.20;5.30;;;10.00;99.90;;;;;;4997973;28;20058;-87
2021/05/09 00:32:37;;;;;;;6.72;4.85;;;9.90;99.90;;;;;;5013718;28;20053;-87
2021/05/09 00:35:04;;;;;;;10.13;6.05;;;9.90;99.90;;;;;;5013107;28;20482;-86
2021/05/09 00:37:32;;;;;;;7.57;5.10;;;9.80;99.90;;;;;;4980876;28;20046;-87
2021/05/09 00:39:59;;;;;;;9.40;5.45;;;9.80;99.90;;;;;;5013023;28;20042;-86
2021/05/09 00:42:25;;;;;;;9.50;5.85;;;9.70;99.90;;;;;;4996643;28;20057;-86
2021/05/09 00:44:57;;;;;;;7.78;5.30;;;9.70;99.90;;;;;;5013911;28;20109;-86
2021/05/09 00:47:25;;;;;;;8.15;5.10;;;9.70;99.90;;;;;;4996685;28;20047;-85
2021/05/09 00:49:52;;;;;;;11.35;5.38;;;9.60;99.90;;;;;;5013121;28;20046;-86
2021/05/09 00:52:19;;;;;;;10.30;6.20;;;9.60;99.90;;;;;;4996324;28;20061;-86
2021/05/09 00:55:01;;;;;;;11.20;6.55;;;9.60;99.90;;;;;;4964750;28;20061;-86
2021/05/09 00:57:33;;;;;;;12.20;6.05;;;9.70;99.90;;;;;;5012680;28;20042;-86
2021/05/09 01:00:07;;;;;;;10.48;6.78;;;9.70;99.90;;;;;;5013118;28;20050;-86
2021/05/09 01:02:35;;;;;;;8.30;6.05;;;9.70;99.90;;;;;;5011897;28;20078;-86
2021/05/09 01:05:04;;;;;;;9.27;6.20;;;9.70;99.90;;;;;;4980809;28;20078;-86
2021/05/09 01:07:33;;;;;;;12.43;7.13;;;9.70;99.90;;;;;;5011390;28;20129;-87
2021/05/09 01:10:07;;;;;;;14.70;7.95;;;9.70;99.90;;;;;;5013807;28;20533;-87
2021/05/09 01:12:38;;;;;;;10.07;5.35;;;9.60;99.90;;;;;;5012986;28;20054;-87
2021/05/09 01:15:06;;;;;;;8.00;5.45;;;9.50;99.90;;;;;;4996369;28;20067;-86
2021/05/09 01:17:35;;;;;;;12.25;5.65;;;9.60;99.90;;;;;;4996545;28;20478;-86
2021/05/09 01:20:05;;;;;;;7.78;5.07;;;9.50;99.90;;;;;;5012502;28;20094;-86
2021/05/09 01:22:32;;;;;;;7.15;5.15;;;9.50;99.90;;;;;;4995700;28;20046;-86
2021/05/09 01:24:59;;;;;;;9.73;5.80;;;9.50;99.90;;;;;;5012587;28;20410;-87
2021/05/09 01:27:29;;;;;;;8.63;6.00;;;9.40;99.90;;;;;;4980469;28;20054;-87
2021/05/09 01:29:59;;;;;;;8.55;5.95;;;9.40;99.90;;;;;;5012223;28;20446;-87
2021/05/09 01:32:26;;;;;;;13.73;6.63;;;9.40;99.90;;;;;;4988680;28;20053;-87
2021/05/09 01:34:53;;;;;;;11.07;6.25;;;9.40;99.90;;;;;;4996505;28;20041;-87
2021/05/09 01:37:20;;;;;;;10.07;6.78;;;9.30;99.90;;;;;;5039135;28;20048;-86
2021/05/09 01:39:47;;;;;;;9.48;5.45;;;9.40;99.90;;;;;;5027537;28;20461;-86
2021/05/09 01:42:14;;;;;;;7.85;5.80;;;9.30;99.90;;;;;;5031617;28;20128;-86
2021/05/09 01:44:54;;;;;;;10.27;5.93;;;9.30;99.90;;;;;;5020477;28;20481;-86
2021/05/09 01:47:21;;;;;;;6.95;5.53;;;9.30;99.90;;;;;;5016218;28;20042;-87
2021/05/09 01:49:48;;;;;;;8.77;6.05;;;9.20;99.90;;;;;;5016057;28;20097;-87
2021/05/09 01:52:16;;;;;;;8.80;5.72;;;9.20;99.90;;;;;;5017000;28;20081;-88
2021/05/09 01:54:44;;;;;;;7.60;5.82;;;9.20;99.90;;;;;;5015240;28;20136;-87
2021/05/09 01:57:12;;;;;;;9.88;5.72;;;9.10;99.90;;;;;;5015707;28;20101;-87
2021/05/09 01:59:39;;;;;;;9.23;5.95;;;9.10;99.90;;;;;;4999000;28;20061;-87
2021/05/09 02:02:06;;;;;;;10.40;5.60;;;9.10;99.90;;;;;;5031000;28;20058;-87
2021/05/09 02:04:35;;;;;;;10.13;5.32;;;9.00;99.90;;;;;;5015750;28;20088;-87
2021/05/09 02:07:22;;;;;;;11.90;5.70;;;9.00;99.90;;;;;;5007440;28;20057;-86
2021/05/09 02:09:49;;;;;;;9.85;6.57;;;9.20;99.90;;;;;;4999008;28;20045;-87
2021/05/09 02:12:16;;;;;;;10.57;5.78;;;9.00;99.90;;;;;;5015164;28;20204;-86
2021/05/09 02:14:43;;;;;;;13.63;7.68;;;9.00;99.90;;;;;;5014965;28;20069;-87
2021/05/09 02:17:09;;;;;;;9.52;5.50;;;9.10;99.90;;;;;;5015387;28;20061;-88
2021/05/09 02:19:36;;;;;;;6.40;5.15;;;9.00;99.90;;;;;;4999413;28;20053;-88
2021/05/09 02:22:09;;;;;;;10.13;5.97;;;8.90;99.90;;;;;;5000441;28;20046;-87
2021/05/09 02:24:36;;;;;;;8.30;5.55;;;9.00;99.90;;;;;;4998604;28;20132;-88
2021/05/09 02:27:03;;;;;;;10.95;6.45;;;8.90;99.90;;;;;;5014915;28;20049;-88
2021/05/09 02:29:30;;;;;;;10.05;5.75;;;9.00;99.90;;;;;;4998807;28;20482;-88
2021/05/09 02:31:57;;;;;;;10.93;7.03;;;9.00;99.90;;;;;;4998774;28;20160;-88
2021/05/09 02:34:30;;;;;;;11.27;6.30;;;9.00;99.90;;;;;;5015818;28;20042;-88
2021/05/09 02:36:57;;;;;;;8.25;5.75;;;9.00;99.90;;;;;;4998561;28;20049;-87
2021/05/09 02:39:24;;;;;;;12.88;6.00;;;9.00;99.90;;;;;;5031267;28;20453;-86
2021/05/09 02:41:51;;;;;;;11.20;6.30;;;8.90;99.90;;;;;;5031066;28;20046;-86
2021/05/09 02:44:18;;;;;;;9.73;6.30;;;9.00;99.90;;;;;;4999039;28;20054;-86
2021/05/09 02:46:45;;;;;;;15.27;7.00;;;9.00;99.90;;;;;;5015111;28;20085;-86
2021/05/09 02:49:12;;;;;;;13.70;6.47;;;9.10;99.90;;;;;;5014946;28;20504;-85
2021/05/09 02:51:38;;;;;;;11.20;5.55;;;9.10;99.90;;;;;;5014505;28;20410;-86
2021/05/09 02:54:05;;;;;;;13.25;6.13;;;9.20;99.90;;;;;;4999514;28;20050;-86
2021/05/09 02:56:32;;;;;;;10.07;6.68;;;9.20;99.90;;;;;;4999352;28;20073;-86
2021/05/09 02:59:01;;;;;;;8.20;5.75;;;9.30;99.90;;;;;;5015607;28;20053;-86
2021/05/09 03:01:28;;;;;;;12.48;5.95;;;9.30;99.90;;;;;;5031427;28;20052;-87
2021/05/09 03:03:55;;;;;;;10.60;5.22;;;9.50;99.90;;;;;;5030923;28;20050;-87
2021/05/09 03:06:22;;;;;;;11.52;5.75;;;9.30;99.90;;;;;;4999044;28;20045;-86
2021/05/09 03:08:48;;;;;;;9.18;5.30;;;9.50;99.90;;;;;;4998532;28;20406;-86
2021/05/09 03:11:15;;;;;;;9.38;5.60;;;9.40;99.90;;;;;;4998600;28;20058;-86
2021/05/09 03:13:42;;;;;;;12.45;5.45;;;9.40;99.90;;;;;;4998924;28;20065;-87
2021/05/09 03:16:09;;;;;;;9.18;5.43;;;9.30;99.90;;;;;;5015695;28;20038;-87
2021/05/09 03:18:36;;;;;;;7.82;5.18;;;9.30;99.90;;;;;;5030768;28;20510;-87
2021/05/09 03:21:03;;;;;;;9.93;5.35;;;9.30;99.90;;;;;;4998636;28;20446;-87
2021/05/09 03:23:30;;;;;;;8.57;5.10;;;9.20;99.90;;;;;;4999274;28;20119;-87
2021/05/09 03:25:57;;;;;;;11.32;5.43;;;9.30;99.90;;;;;;4998250;28;20046;-86
2021/05/09 03:28:24;;;;;;;9.05;4.97;;;9.10;99.90;;;;;;5014687;28;20494;-87
2021/05/09 03:30:51;;;;;;;7.65;4.65;;;9.10;99.90;;;;;;4999751;28;20078;-86
2021/05/09 03:33:18;;;;;;;8.20;4.95;;;9.10;99.90;;;;;;5018148;28;20053;-86
2021/05/09 03:35:45;;;;;;;7.45;4.90;;;9.10;99.90;;;;;;5001559;28;20089;-85
2021/05/09 03:38:12;;;;;;;9.27;5.68;;;9.10;99.90;;;;;;5033931;28;20394;-86
2021/05/09 03:40:40;;;;;;;11.80;5.82;;;9.00;99.90;;;;;;5001454;28;20046;-86
2021/05/09 03:43:08;;;;;;;8.50;5.50;;;9.00;99.90;;;;;;5017915;28;20402;-86
2021/05/09 03:45:35;;;;;;;11.73;6.10;;;9.00;99.90;;;;;;5034321;28;20048;-86
2021/05/09 03:48:02;;;;;;;9.25;5.28;;;9.20;99.90;;;;;;5002291;28;20140;-87
2021/05/09 03:50:32;;;;;;;11.13;5.20;;;9.10;99.90;;;;;;5034966;28;20102;-86
2021/05/09 03:52:58;;;;;;;9.75;5.40;;;9.10;99.90;;;;;;5033664;28;20054;-86
2021/05/09 03:55:25;;;;;;;9.65;5.85;;;9.10;99.90;;;;;;5001698;28;20108;-87
2021/05/09 03:57:52;;;;;;;9.35;5.07;;;9.10;99.90;;;;;;5002352;28;20046;-86
2021/05/09 04:00:19;;;;;;;8.10;5.35;;;9.10;99.90;;;;;;5017964;28;20050;-85
2021/05/09 04:02:46;;;;;;;10.15;5.07;;;9.20;99.90;;;;;;5001052;28;20066;-86
2021/05/09 04:05:13;;;;;;;12.57;6.00;;;9.10;99.90;;;;;;5017846;28;20064;-86
2021/05/09 04:07:40;;;;;;;8.43;5.22;;;9.10;99.90;;;;;;5017310;28;20501;-86
2021/05/09 04:10:08;;;;;;;8.25;5.05;;;9.20;99.90;;;;;;5002238;28;20046;-86
2021/05/09 04:12:35;;;;;;;11.27;5.80;;;9.20;99.90;;;;;;5033808;28;20054;-86
2021/05/09 04:15:02;;;;;;;10.43;6.20;;;9.20;99.90;;;;;;5033869;28;20457;-87
2021/05/09 04:17:29;;;;;;;11.73;5.75;;;9.20;99.90;;;;;;5018169;28;20504;-88
2021/05/09 04:19:56;;;;;;;11.98;5.60;;;9.20;99.90;;;;;;5001949;28;20080;-87
2021/05/09 04:22:23;;;;;;;9.23;5.22;;;9.20;99.90;;;;;;5018552;28;20489;-87
2021/05/09 04:24:50;;;;;;;9.80;5.53;;;9.30;99.90;;;;;;5017384;28;20569;-88
2021/05/09 04:27:18;;;;;;;9.27;5.78;;;9.40;99.90;;;;;;5018068;28;20050;-88
2021/05/09 04:29:45;;;;;;;8.23;5.32;;;9.40;99.90;;;;;;5000783;28;20056;-88
2021/05/09 04:32:12;;;;;;;10.82;5.32;;;9.50;99.90;;;;;;5001491;28;20080;-88
2021/05/09 04:34:39;;;;;;;10.65;5.70;;;9.60;99.90;;;;;;5000964;28;20057;-88
2021/05/09 04:37:06;;;;;;;12.85;5.13;;;9.60;99.90;;;;;;5000662;28;20061;-87
2021/05/09 04:39:33;;;;;;;11.60;5.10;;;9.60;99.90;;;;;;5017606;28;20046;-87
2021/05/09 04:42:00;;;;;;;13.38;6.10;;;9.70;99.90;;;;;;5017542;28;20517;-88
2021/05/09 04:44:27;;;;;;;12.98;5.50;;;9.70;99.90;;;;;;5033338;28;20042;-87
2021/05/09 04:46:54;;;;;;;11.82;5.88;;;9.80;99.90;;;;;;5016596;28;20042;-87
2021/05/09 04:49:21;;;;;;;10.73;5.80;;;10.10;99.90;;;;;;5000887;28;20504;-87
2021/05/09 04:51:47;;;;;;;10.95;5.53;;;9.90;99.90;;;;;;5000562;28;20383;-88
2021/05/09 04:54:14;;;;;;;10.63;5.70;;;10.00;99.90;;;;;;5032993;28;20097;-88
2021/05/09 04:56:41;;;;;;;10.52;5.80;;;10.00;99.90;;;;;;5000505;28;20521;-87
2021/05/09 04:59:08;;;;;;;11.73;5.97;;;10.10;99.90;;;;;;5016257;28;20045;-87
2021/05/09 05:01:34;;;;;;;12.82;5.97;;;10.10;99.90;;;;;;5016231;28;20430;-86
2021/05/09 05:04:01;;;;;;;10.15;5.97;;;10.20;99.90;;;;;;5000237;28;20058;-87
2021/05/09 05:06:28;;;;;;;9.95;6.20;;;10.30;99.90;;;;;;5000376;28;20406;-87
2021/05/09 05:08:55;;;;;;;9.85;5.47;;;10.40;99.90;;;;;;5016112;28;20409;-87
2021/05/09 05:11:22;;;;;;;9.25;5.55;;;10.50;99.90;;;;;;4999937;28;20065;-87
2021/05/09 05:13:49;;;;;;;11.38;5.85;;;10.60;99.90;;;;;;5016126;28;20042;-87
2021/05/09 05:16:16;;;;;;;12.38;5.63;;;10.70;99.90;;;;;;5031736;28;20074;-87
2021/05/09 05:18:42;;;;;;;11.23;5.57;;;10.80;99.90;;;;;;5032014;28;20548;-87
2021/05/09 05:21:11;;;;;;;10.35;5.68;;;10.80;99.90;;;;;;4999911;28;20046;-87
2021/05/09 05:23:38;;;;;;;11.52;5.60;;;10.90;99.90;;;;;;5016683;28;20097;-87
2021/05/09 05:26:05;;;;;;;12.05;5.97;;;10.90;99.90;;;;;;5016302;28;20073;-87
2021/05/09 05:28:33;;;;;;;8.68;5.53;;;10.80;99.90;;;;;;5016309;28;20042;-87
2021/05/09 05:31:00;;;;;;;9.38;5.72;;;11.00;99.90;;;;;;5015792;28;20045;-87
2021/05/09 05:33:32;;;;;;;9.68;6.00;;;11.10;99.90;;;;;;5000056;28;20049;-87
2021/05/09 05:36:00;;;;;;;9.63;5.63;;;11.10;99.90;;;;;;5015488;28;20053;-87
2021/05/09 05:38:28;;;;;;;12.38;5.93;;;11.20;99.90;;;;;;5015896;28;20050;-87
2021/05/09 05:40:56;;;;;;;11.07;5.88;;;11.30;99.90;;;;;;5031708;28;20398;-87
2021/05/09 05:43:27;;;;;;;10.00;5.30;;;11.40;99.90;;;;;;5031568;28;20049;-86
2021/05/09 05:45:56;;;;;;;8.52;5.40;;;11.50;99.90;;;;;;5015429;28;20038;-87
2021/05/09 05:48:24;;;;;;;11.00;5.53;;;11.50;99.90;;;;;;5031504;28;20049;-87
2021/05/09 05:50:51;;;;;;;9.27;5.20;;;11.60;99.90;;;;;;5031535;28;20042;-87
2021/05/09 05:53:21;;;;;;;8.80;5.40;;;11.60;99.90;;;;;;5031026;28;20077;-86
2021/05/09 05:55:50;;;;;;;10.05;5.43;;;11.70;99.90;;;;;;5015239;28;20061;-87
2021/05/09 05:58:18;;;;;;;11.30;5.88;;;11.80;99.90;;;;;;5014998;28;20077;-86
2021/05/09 06:00:45;;;;;;;11.38;5.28;;;11.90;99.90;;;;;;5015168;28;20072;-86
2021/05/09 06:03:12;;;;;;;12.98;6.15;;;12.00;99.90;;;;;;4998423;28;20060;-87
2021/05/09 06:05:44;;;;;;;8.50;5.28;;;12.10;99.90;;;;;;4999492;28;20049;-87
2021/05/09 06:08:11;;;;;;;8.85;5.28;;;12.20;99.90;;;;;;4999762;28;20054;-87
2021/05/09 06:10:38;;;;;;;6.55;4.97;;;12.30;99.90;;;;;;5015237;28;20049;-87
2021/05/09 06:13:05;;;;;;;10.15;4.45;;;12.30;99.90;;;;;;5019127;28;20058;-87
2021/05/09 06:15:32;;;;;;;10.57;5.57;;;12.40;99.90;;;;;;4979790;28;20144;-87
2021/05/09 06:17:59;;;;;;;9.63;5.40;;;12.50;99.90;;;;;;4979627;28;20054;-87
2021/05/09 06:20:27;;;;;;;9.70;5.07;;;12.50;99.90;;;;;;4979619;28;20490;-87
2021/05/09 06:23:01;;;;;;;7.35;5.10;;;12.70;99.90;;;;;;4979467;28;20050;-85
2021/05/09 06:25:29;;;;;;;7.72;4.63;;;12.70;99.90;;;;;;4995037;28;20076;-87
2021/05/09 06:27:56;;;;;;;7.50;4.85;;;12.70;99.90;;;;;;5011274;28;20043;-87
2021/05/09 06:30:23;;;;;;;8.57;4.70;;;12.80;99.90;;;;;;4979416;28;20051;-86
2021/05/09 06:32:52;;;;;;;7.28;4.38;;;12.90;99.90;;;;;;4979320;28;20050;-87
2021/05/09 06:35:20;;;;;;;8.88;4.72;;;13.00;99.90;;;;;;4995304;28;20486;-87
2021/05/09 06:37:49;;;;;;;8.65;5.10;;;13.10;99.90;;;;;;4979876;28;20475;-86
2021/05/09 06:40:17;;;;;;;7.28;5.20;;;13.20;99.90;;;;;;4996976;28;20046;-87
2021/05/09 06:42:44;;;;;;;8.60;5.05;;;13.20;99.90;;;;;;5034749;28;20088;-86
2021/05/09 06:45:22;;;;;;;10.68;5.25;;;13.30;99.90;;;;;;5016705;28;20045;-86
2021/05/09 06:47:50;;;;;;;8.02;4.72;;;13.40;99.90;;;;;;5050659;28;20046;-85
2021/05/09 06:50:16;;;;;;;8.27;4.50;;;13.60;99.90;;;;;;4988272;28;20134;-87
2021/05/09 06:52:43;;;;;;;7.63;4.47;;;13.70;99.90;;;;;;5014016;28;20153;-86
2021/05/09 06:55:12;;;;;;;9.52;4.68;;;13.80;99.90;;;;;;4995806;28;20049;-86
2021/05/09 06:57:39;;;;;;;9.18;4.35;;;13.90;99.90;;;;;;5030372;28;20052;-86
2021/05/09 07:00:08;;;;;;;7.13;4.25;;;13.90;99.90;;;;;;5014796;28;20440;-87
2021/05/09 07:02:35;;;;;;;7.78;4.38;;;14.10;99.90;;;;;;5015558;28;20048;-87
2021/05/09 07:05:03;;;;;;;6.20;4.10;;;14.20;99.90;;;;;;5015221;28;20053;-87
2021/05/09 07:07:30;;;;;;;9.68;3.97;;;14.20;99.90;;;;;;5034587;28;20063;-88
2021/05/09 07:09:57;;;;;;;6.80;4.05;;;14.30;99.90;;;;;;5018796;28;20128;-88
2021/05/09 07:12:24;;;;;;;7.85;4.00;;;14.40;99.90;;;;;;5002139;28;20054;-88
2021/05/09 07:14:51;;;;;;;8.98;4.50;;;14.50;99.90;;;;;;5034968;28;20069;-90
2021/05/09 07:17:18;;;;;;;5.65;3.85;;;14.50;99.90;;;;;;5001957;28;20457;-87
2021/05/09 07:19:45;;;;;;;8.27;3.80;;;14.60;99.90;;;;;;5018694;28;20073;-89
2021/05/09 07:22:17;;;;;;;6.47;3.95;;;14.80;99.90;;;;;;5033110;28;20071;-88
2021/05/09 07:24:45;;;;;;;10.68;4.18;;;14.90;99.90;;;;;;5034204;28;20072;-88
2021/05/09 07:27:11;;;;;;;8.95;3.80;;;15.00;99.90;;;;;;5017542;28;20046;-85
2021/05/09 07:29:38;;;;;;;5.55;3.35;;;15.10;99.90;;;;;;5001840;28;20056;-86
2021/05/09 07:32:05;;;;;;;5.00;3.78;;;15.20;99.90;;;;;;5018316;28;20050;-87
2021/05/09 07:34:32;;;;;;;9.48;4.35;;;15.30;99.90;;;;;;5002094;28;20046;-89
2021/05/09 07:37:04;;;;;;;6.15;3.70;;;15.40;99.90;;;;;;5034927;28;20497;-85
2021/05/09 07:39:31;;;;;;;7.20;3.28;;;15.50;99.90;;;;;;5046269;28;20047;-87
2021/05/09 07:41:58;;;;;;;7.18;3.38;;;15.60;99.90;;;;;;5021413;28;20053;-90
2021/05/09 07:44:25;;;;;;;6.50;3.40;;;15.70;99.90;;;;;;5037767;28;20488;-87
2021/05/09 07:46:52;;;;;;;6.43;3.67;;;15.70;99.90;;;;;;5017785;28;20380;-88
2021/05/09 07:49:29;;;;;;;6.10;3.70;;;15.70;99.90;;;;;;5007778;28;20084;-95
2021/05/09 07:51:56;;;;;;;5.47;3.20;;;15.90;99.90;;;;;;5017812;28;20073;-87
2021/05/09 07:54:23;;;;;;;5.30;3.30;;;16.00;99.90;;;;;;5001750;28;20438;-86
2021/05/09 07:56:49;;;;;;;4.70;3.15;;;16.00;99.90;;;;;;5017912;28;20042;-91
2021/05/09 07:59:16;;;;;;;8.32;3.38;;;16.10;99.90;;;;;;5017344;28;20096;-89
2021/05/09 08:01:43;;;;;;;7.22;3.28;;;16.20;99.90;;;;;;5001806;28;20054;-88
2021/05/09 08:04:10;;;;;;;7.55;3.22;;;16.20;99.90;;;;;;5017163;28;20089;-89
2021/05/09 08:06:39;;;;;;;9.55;3.40;;;16.20;99.90;;;;;;5001395;28;20147;-88
2021/05/09 08:09:06;;;;;;;6.18;3.10;;;16.20;99.90;;;;;;5017748;28;20049;-88
2021/05/09 08:11:33;;;;;;;8.35;3.20;;;16.30;99.90;;;;;;5017025;28;20482;-88
2021/05/09 08:14:00;;;;;;;6.45;3.13;;;16.40;99.90;;;;;;5001343;28;20058;-88
2021/05/09 08:16:27;;;;;;;5.95;2.92;;;16.50;99.90;;;;;;5018772;28;20061;-88
2021/05/09 08:18:54;;;;;;;4.20;2.70;;;16.60;99.90;;;;;;5020926;28;20053;-88
2021/05/09 08:21:21;;;;;;;5.57;2.97;;;16.80;99.90;;;;;;5017011;28;20133;-88
2021/05/09 08:23:47;;;;;;;5.28;2.83;;;17.00;99.90;;;;;;5017061;28;20042;-88
2021/05/09 08:26:14;;;;;;;5.30;2.70;;;17.10;99.90;;;;;;5016976;28;20401;-88
2021/05/09 08:28:42;;;;;;;6.97;3.08;;;17.20;99.90;;;;;;5016997;28;20050;-88
2021/05/09 08:31:56;;;;;;;6.22;2.83;;;17.30;99.90;;;;;;5016895;28;20046;-88
2021/05/09 08:34:41;;;;;;;6.55;2.92;;;17.40;99.90;;;;;;5014206;28;20057;-88
2021/05/09 08:37:10;;;;;;;6.45;2.90;;;17.50;99.90;;;;;;5003853;28;20053;-87
2021/05/09 08:39:38;;;;;;;5.65;3.10;;;17.70;99.90;;;;;;5014538;28;20055;-88
2021/05/09 08:42:13;;;;;;;6.13;2.80;;;17.80;99.90;;;;;;4999246;28;20050;-87
2021/05/09 08:44:40;;;;;;;5.57;2.70;;;17.90;99.90;;;;;;5010970;28;20070;-87
2021/05/09 08:47:08;;;;;;;7.70;2.60;;;18.00;99.90;;;;;;4996062;28;20568;-89
2021/05/09 08:49:40;;;;;;;6.07;2.58;;;18.20;99.90;;;;;;5012479;28;20494;-88
2021/05/09 08:52:09;;;;;;;4.60;2.55;;;18.30;99.90;;;;;;5014399;28;20068;-88
2021/05/09 08:54:37;;;;;;;4.78;2.50;;;18.50;99.90;;;;;;5053088;28;20124;-89
2021/05/09 08:57:05;;;;;;;5.35;2.67;;;18.60;99.90;;;;;;5052832;28;20045;-89
2021/05/09 08:59:35;;;;;;;6.00;2.55;;;18.70;99.90;;;;;;5036431;28;20473;-89
2021/05/09 09:02:02;;;;;;;6.05;2.70;;;18.80;99.90;;;;;;5024074;28;20053;-88
2021/05/09 09:05:02;;;;;;;6.35;2.50;;;19.00;99.90;;;;;;5016583;28;20097;-88
2021/05/09 09:07:45;;;;;;;4.35;2.22;;;19.00;99.90;;;;;;4964256;28;20050;-89
2021/05/09 09:10:32;;;;;;;6.18;2.30;;;19.10;99.90;;;;;;5028995;28;20046;-88
2021/05/09 09:13:00;;;;;;;6.28;2.45;;;19.20;99.90;;;;;;5035391;28;20064;-88
2021/05/09 09:15:59;;;;;;;6.78;2.40;;;19.30;99.90;;;;;;5024444;28;20108;-88
2021/05/09 09:18:34;;;;;;;3.42;1.77;;;19.40;99.90;;;;;;4989840;28;20046;-88
2021/05/09 09:21:29;;;;;;;4.35;1.88;;;19.50;99.90;;;;;;5032151;28;20108;-89
2021/05/09 09:24:06;;;;;;;6.03;2.13;;;19.60;99.90;;;;;;5032304;28;20046;-88
2021/05/09 09:26:33;;;;;;;4.22;2.00;;;19.60;99.90;;;;;;5031632;28;20050;-88
2021/05/09 09:29:20;;;;;;;4.72;2.00;;;19.70;99.90;;;;;;5039567;28;20052;-89
2021/05/09 09:31:55;;;;;;;4.50;2.00;;;19.80;99.90;;;;;;5052151;28;20111;-87
2021/05/09 09:34:36;;;;;;;3.88;1.98;;;20.00;99.90;;;;;;5044346;28;20041;-88
2021/05/09 09:37:03;;;;;;;3.63;1.70;;;20.20;99.90;;;;;;5035113;28;20052;-88
2021/05/09 09:39:49;;;;;;;4.25;1.70;;;20.30;99.90;;;;;;5034715;28;20037;-87
2021/05/09 09:42:41;;;;;;;3.97;1.73;;;20.50;99.90;;;;;;5018939;28;20103;-88
2021/05/09 09:45:35;;;;;;;3.38;1.52;;;20.70;99.90;;;;;;5026920;28;20097;-87
2021/05/09 09:48:04;;;;;;;3.60;1.45;;;20.60;99.90;;;;;;5015209;28;20180;-87
2021/05/09 09:50:37;;;;;;;4.07;1.63;;;20.40;99.90;;;;;;5031377;28;20048;-87
2021/05/09 09:53:46;;;;;;;4.95;1.48;;;20.30;99.50;;;;;;5031444;28;20057;-87
2021/05/09 09:56:23;;;;;;;3.67;1.60;;;20.00;99.90;;;;;;5015723;28;20050;-87
2021/05/09 09:59:02;;;;;;;4.30;1.65;;;19.70;99.90;;;;;;5031496;28;20398;-87
2021/05/09 10:01:34;;;;;;;3.30;1.38;;;19.50;99.90;;;;;;5015008;28;20399;-87
2021/05/09 10:04:02;;;;;;;5.32;1.92;;;19.30;99.90;;;;;;5015119;28;20045;-87
2021/05/09 10:06:29;;;;;;;5.90;2.40;;;19.10;99.90;;;;;;5033939;28;20049;-88
2021/05/09 10:08:59;;;;;;;4.32;2.10;;;18.90;99.90;;;;;;5051182;28;20494;-88
2021/05/09 10:11:28;;;;;;;7.00;2.33;;;18.70;99.90;;;;;;5034467;28;20080;-88
2021/05/09 10:13:56;;;;;;;5.60;2.40;;;18.40;99.90;;;;;;5051180;28;20425;-88
2021/05/09 10:16:29;;;;;;;6.25;2.30;;;18.10;99.90;;;;;;5032354;28;20133;-88
2021/05/09 10:18:58;;;;;;;5.78;2.35;;;18.00;99.90;;;;;;5031596;28;20056;-88
2021/05/09 10:21:36;;;;;;;5.45;2.40;;;17.90;99.90;;;;;;5015939;28;20049;-88
2021/05/09 10:24:14;;;;;;;5.15;2.53;;;17.90;99.90;;;;;;5031480;28;20053;-87
2021/05/09 10:26:46;;;;;;;5.60;2.38;;;18.10;99.90;;;;;;5044176;28;20478;-87
2021/05/09 10:29:32;;;;;;;4.53;2.50;;;18.40;99.90;;;;;;5051137;28;20045;-87
2021/05/09 10:32:09;;;;;;;5.65;2.30;;;18.90;99.90;;;;;;5050933;28;20050;-88
2021/05/09 10:34:57;;;;;;;5.55;2.15;;;19.30;99.90;;;;;;5064413;28;20038;-87
2021/05/09 10:37:42;;;;;;;4.47;2.15;;;19.70;99.90;;;;;;5014488;28;20037;-87
2021/05/09 10:40:26;;;;;;;4.65;1.90;;;20.00;99.90;;;;;;5034354;28;20072;-88
2021/05/09 10:43:07;;;;;;;4.90;1.67;;;20.20;99.90;;;;;;5050910;28;20046;-87
2021/05/09 10:45:39;;;;;;;6.00;1.70;;;20.30;99.90;;;;;;5033838;28;20499;-84
2021/05/09 10:48:15;;;;;;;4.82;1.67;;;20.40;99.90;;;;;;5033852;28;20493;-82
2021/05/09 10:51:00;;;;;;;5.00;1.50;;;20.60;99.90;;;;;;5034281;28;20121;-92
2021/05/09 10:53:46;;;;;;;4.03;1.65;;;20.80;99.90;;;;;;5034245;28;20046;-93
2021/05/09 10:56:16;;;;;;;2.33;1.30;;;20.90;99.90;;;;;;5035496;28;20054;-87
2021/05/09 10:58:50;;;;;;;4.40;1.33;;;20.90;99.90;;;;;;5034021;28;20491;-86
2021/05/09 11:01:36;;;;;;;3.10;1.33;;;21.00;99.90;;;;;;5034298;28;20437;-87
2021/05/09 11:04:10;;;;;;;3.42;1.20;;;21.30;99.90;;;;;;5018791;28;20046;-88
2021/05/09 11:06:42;;;;;;;2.90;1.20;;;21.50;98.30;;;;;;5046670;28;20120;-87
2021/05/09 11:09:42;;;;;;;5.22;1.30;;;21.70;95.90;;;;;;5033808;28;20072;-86
2021/05/09 11:12:09;;;;;;;3.63;1.10;;;21.90;93.10;;;;;;5039256;28;20049;-89
2021/05/09 11:14:37;;;;;;;4.57;1.10;;;22.30;91.00;;;;;;5050127;28;20050;-89
2021/05/09 11:17:07;;;;;;;2.88;1.13;;;22.40;89.90;;;;;;5018982;28;20097;-90
2021/05/09 11:19:36;;;;;;;4.88;1.02;;;22.50;86.70;;;;;;5017966;28;20096;-90
2021/05/09 11:22:03;;;;;;;2.72;1.20;;;22.50;82.10;;;;;;5002173;28;20046;-89
2021/05/09 11:24:32;;;;;;;4.32;1.30;;;22.60;86.40;;;;;;5018646;28;20076;-92
2021/05/09 11:27:04;;;;;;;2.65;1.13;;;22.60;83.50;;;;;;5034647;28;20046;-90
2021/05/09 11:29:31;;;;;;;4.03;1.30;;;22.60;84.50;;;;;;5034453;28;20117;-90
2021/05/09 11:32:07;;;;;;;2.67;1.05;;;22.50;82.80;;;;;;5051261;28;20645;-90
2021/05/09 11:34:34;;;;;;;4.65;1.48;;;22.40;85.00;;;;;;5053729;28;20417;-89
2021/05/09 11:37:07;;;;;;;2.67;1.40;;;22.50;86.50;;;;;;5054300;28;20046;-90
2021/05/09 11:39:41;;;;;;;2.17;1.00;;;22.70;87.50;;;;;;5054568;28;20037;-92
2021/05/09 11:42:14;;;;;;;2.80;1.13;;;22.80;83.00;;;;;;5004554;28;20515;-90
2021/05/09 11:44:51;;;;;;;3.35;1.13;;;22.70;76.10;;;;;;5034097;28;20524;-88
2021/05/09 11:47:27;;;;;;;2.88;1.30;;;22.60;76.90;;;;;;5033880;28;20136;-89
2021/05/09 11:50:03;;;;;;;4.72;1.20;;;22.50;77.50;;;;;;5034045;28;20041;-89
2021/05/09 11:52:43;;;;;;;2.35;1.20;;;22.50;77.50;;;;;;5017450;28;20058;-89
2021/05/09 11:55:15;;;;;;;2.92;1.30;;;22.60;79.70;;;;;;5034339;28;20053;-89
2021/05/09 11:57:42;;;;;;;2.65;1.10;;;22.60;79.50;;;;;;5033351;28;20045;-85
2021/05/09 12:00:10;;;;;;;4.90;1.20;;;22.80;77.70;;;;;;5032746;28;20540;-84
2021/05/09 12:02:39;;;;;;;4.15;1.20;;;22.80;77.40;;;;;;5032253;28;20062;-83
2021/05/09 12:05:15;;;;;;;4.70;1.38;;;22.80;77.40;;;;;;5039582;28;20418;-88
2021/05/09 12:08:00;;;;;;;1.85;1.00;;;22.80;78.40;;;;;;5053403;28;20128;-90
2021/05/09 12:10:33;;;;;;;2.20;1.10;;;22.80;76.90;;;;;;5028502;28;20041;-89
2021/05/09 12:13:05;;;;;;;2.35;1.05;;;22.90;77.70;;;;;;5052805;28;20046;-88
2021/05/09 12:15:38;;;;;;;2.60;1.10;;;23.00;77.50;;;;;;5041337;28;20057;-88
2021/05/09 12:18:05;;;;;;;2.90;1.00;;;23.10;77.70;;;;;;5033272;28;20065;-88
2021/05/09 12:20:34;;;;;;;2.85;1.20;;;23.40;76.30;;;;;;4985243;28;20042;-89
2021/05/09 12:23:06;;;;;;;2.92;1.23;;;23.60;75.80;;;;;;5016873;28;20046;-90
2021/05/09 12:25:42;;;;;;;3.53;1.20;;;23.70;75.60;;;;;;5033457;28;20142;-89
2021/05/09 12:28:11;;;;;;;2.75;1.20;;;23.90;74.20;;;;;;5033481;28;20042;-89
2021/05/09 12:30:39;;;;;;;3.83;1.30;;;24.10;74.40;;;;;;5033180;28;20537;-89
2021/05/09 12:33:07;;;;;;;4.00;1.30;;;24.10;72.90;;;;;;5001270;28;20057;-89
2021/05/09 12:35:48;;;;;;;3.35;1.40;;;24.00;72.00;;;;;;5033594;28;20092;-89
2021/05/09 12:38:29;;;;;;;3.33;1.10;;;24.00;73.20;;;;;;5017240;28;20057;-90
2021/05/09 12:41:06;;;;;;;4.43;1.13;;;23.90;71.80;;;;;;5016970;28;20046;-89
2021/05/09 12:43:59;;;;;;;3.50;1.20;;;23.90;72.20;;;;;;5032872;28;20042;-89
2021/05/09 12:46:41;;;;;;;2.72;1.10;;;23.90;74.50;;;;;;4994102;28;20065;-89
2021/05/09 12:49:14;;;;;;;3.85;1.10;;;23.80;74.30;;;;;;5013001;28;20046;-89
2021/05/09 12:51:58;;;;;;;3.45;1.20;;;23.80;75.30;;;;;;4981187;28;20454;-90
2021/05/09 12:54:38;;;;;;;2.53;0.95;;;23.70;75.40;;;;;;5013126;28;20052;-89
2021/05/09 12:57:25;;;;;;;2.22;1.10;;;23.70;76.60;;;;;;4996729;28;20565;-89
2021/05/09 13:00:03;;;;;;;2.17;1.20;;;23.50;76.90;;;;;;5015073;28;20043;-89
2021/05/09 13:02:48;;;;;;;2.38;1.10;;;23.40;80.30;;;;;;5033136;28;20046;-89
2021/05/09 13:05:18;;;;;;;4.18;1.27;;;23.30;78.60;;;;;;5016778;28;20065;-88